createdAt,value
2019-01-24T00:01:49.963Z,65.80
2019-01-24T00:04:18.564Z,66.50
2019-01-24T00:06:47.055Z,69.10
2019-01-24T00:09:15.556Z,64.93
2019-01-24T00:11:44.071Z,68.50
2019-01-24T00:14:12.547Z,68.23
2019-01-24T00:16:41.115Z,69.93
2019-01-24T00:19:09.649Z,66.00
2019-01-24T00:21:38.108Z,67.87
2019-01-24T00:24:06.543Z,72.53
2019-01-24T00:26:34.915Z,65.23
2019-01-24T00:29:03.563Z,70.83
2019-01-24T00:31:32.055Z,69.70
2019-01-24T00:34:05.083Z,65.17
2019-01-24T00:36:34.732Z,65.07
2019-01-24T00:39:04.307Z,69.77
2019-01-24T00:41:32.784Z,67.20
2019-01-24T00:44:01.262Z,71.30
2019-01-24T00:46:29.728Z,72.87
2019-01-24T00:48:58.308Z,74.77
2019-01-24T00:51:26.859Z,76.67
2019-01-24T00:53:55.323Z,60.17
2019-01-24T00:56:23.763Z,68.63
2019-01-24T00:58:52.302Z,71.03
2019-01-24T01:01:20.767Z,68.50
2019-01-24T01:03:49.135Z,79.40
2019-01-24T01:06:17.663Z,72.77
2019-01-24T01:09:24.623Z,69.73
2019-01-24T01:11:53.170Z,71.20
2019-01-24T01:14:22.652Z,68.80
2019-01-24T01:16:51.063Z,74.70
2019-01-24T01:19:19.505Z,65.67
2019-01-24T01:21:47.955Z,72.20
2019-01-24T01:24:16.450Z,69.37
2019-01-24T01:26:44.868Z,73.23
2019-01-24T01:29:13.243Z,73.40
2019-01-24T01:31:41.791Z,72.43
2019-01-24T01:34:10.180Z,66.47
2019-01-24T01:36:38.671Z,79.43
2019-01-24T01:39:07.839Z,73.30
2019-01-24T01:41:36.419Z,75.20
2019-01-24T01:44:04.956Z,75.07
2019-01-24T01:46:33.499Z,67.93
2019-01-24T01:49:02.019Z,73.27
2019-01-24T01:51:30.487Z,75.17
2019-01-24T01:53:58.984Z,73.13
2019-01-24T01:56:27.481Z,73.50
2019-01-24T01:58:55.959Z,79.97
2019-01-24T02:01:24.412Z,71.17
2019-01-24T02:03:53.167Z,67.63
2019-01-24T02:06:21.614Z,73.37
2019-01-24T02:08:49.980Z,73.50
2019-01-24T02:11:21.059Z,75.00
2019-01-24T02:13:49.511Z,79.87
2019-01-24T02:16:18.107Z,71.97
2019-01-24T02:18:46.643Z,75.20
2019-01-24T02:21:15.214Z,83.70
2019-01-24T02:23:43.697Z,73.50
2019-01-24T02:26:12.150Z,86.73
2019-01-24T02:28:40.530Z,75.47
2019-01-24T02:31:09.189Z,82.77
2019-01-24T02:33:37.681Z,82.73
2019-01-24T02:36:06.160Z,80.87
2019-01-24T02:38:34.631Z,78.33
2019-01-24T02:41:03.047Z,76.43
2019-01-24T02:43:31.553Z,85.33
2019-01-24T02:45:59.938Z,79.83
2019-01-24T02:48:28.414Z,85.47
2019-01-24T02:50:56.897Z,79.33
2019-01-24T02:53:25.335Z,86.63
2019-01-24T02:55:53.859Z,77.33
2019-01-24T02:58:23.309Z,85.27
2019-01-24T03:00:51.774Z,86.77
2019-01-24T03:03:20.230Z,77.60
2019-01-24T03:05:48.709Z,85.03
2019-01-24T03:08:17.244Z,81.87
2019-01-24T03:10:45.701Z,86.63
2019-01-24T03:13:14.228Z,84.87
2019-01-24T03:15:42.748Z,84.57
2019-01-24T03:18:11.188Z,80.80
2019-01-24T03:20:39.647Z,85.10
2019-01-24T03:23:08.111Z,90.30
2019-01-24T03:25:36.562Z,86.83
2019-01-24T03:28:05.002Z,85.80
2019-01-24T03:30:33.475Z,78.80
2019-01-24T03:33:03.039Z,91.40
2019-01-24T03:35:31.581Z,88.93
2019-01-24T03:37:59.967Z,79.97
2019-01-24T03:40:28.411Z,91.17
2019-01-24T03:42:56.907Z,85.60
2019-01-24T03:45:25.361Z,86.43
2019-01-24T03:47:53.868Z,90.13
2019-01-24T03:50:23.385Z,91.37
2019-01-24T03:52:51.860Z,87.10
2019-01-24T03:55:20.839Z,83.40
2019-01-24T03:57:49.307Z,98.90
2019-01-24T04:00:18.928Z,88.37
2019-01-24T04:02:47.478Z,90.37
2019-01-24T04:05:17.732Z,88.13
2019-01-24T04:07:46.118Z,88.10
2019-01-24T04:10:15.751Z,96.03
2019-01-24T04:12:44.476Z,86.63
2019-01-24T04:15:14.466Z,90.47
2019-01-24T04:17:43.159Z,92.77
2019-01-24T04:20:11.723Z,94.17
2019-01-24T04:22:40.169Z,88.63
2019-01-24T04:25:11.247Z,90.23
2019-01-24T04:27:39.692Z,90.83
2019-01-24T04:30:09.534Z,86.10
2019-01-24T04:32:38.017Z,91.83
2019-01-24T04:35:07.295Z,93.30
2019-01-24T04:37:35.754Z,91.97
2019-01-24T04:40:04.671Z,90.17
2019-01-24T04:42:33.049Z,95.00
2019-01-24T04:45:01.464Z,102.53
2019-01-24T04:47:30.072Z,95.70
2019-01-24T04:50:00.639Z,99.40
2019-01-24T04:52:32.180Z,87.50
2019-01-24T04:55:00.697Z,96.00
2019-01-24T04:57:29.155Z,90.13
2019-01-24T04:59:57.746Z,90.00
2019-01-24T05:02:26.332Z,101.53
2019-01-24T05:04:54.847Z,99.20
2019-01-24T05:07:23.376Z,94.90
2019-01-24T05:09:51.923Z,101.30
2019-01-24T05:12:20.608Z,106.40
2019-01-24T05:14:49.087Z,95.80
2019-01-24T05:17:18.790Z,108.83
2019-01-24T05:19:47.242Z,97.37
2019-01-24T05:22:15.750Z,94.13
2019-01-24T05:24:44.160Z,98.80
2019-01-24T05:27:12.635Z,95.73
2019-01-24T05:29:41.237Z,102.30
2019-01-24T05:32:09.668Z,135.17
2019-01-24T05:34:38.048Z,121.17
2019-01-24T05:37:06.503Z,106.83
2019-01-24T05:39:36.215Z,101.57
2019-01-24T05:42:04.717Z,99.40
2019-01-24T05:44:33.347Z,99.87
2019-01-24T05:47:11.659Z,103.77
2019-01-24T05:49:40.169Z,100.33
2019-01-24T05:52:08.653Z,97.50
2019-01-24T05:54:39.384Z,100.77
2019-01-24T05:57:07.784Z,99.90
2019-01-24T05:59:36.337Z,115.55
2019-01-24T06:02:05.128Z,106.47
2019-01-24T06:04:34.323Z,112.57
2019-01-24T06:07:02.784Z,98.47
2019-01-24T06:09:31.556Z,99.50
2019-01-24T06:12:00.194Z,98.70
2019-01-24T06:14:28.716Z,115.05
2019-01-24T06:16:57.188Z,101.20
2019-01-24T06:19:28.214Z,96.87
2019-01-24T06:21:56.999Z,105.40
2019-01-24T06:24:25.536Z,95.43
2019-01-24T06:26:54.244Z,109.92
2019-01-24T06:29:22.827Z,101.93
2019-01-24T06:31:51.443Z,95.50
2019-01-24T06:34:20.025Z,98.90
2019-01-24T06:36:49.478Z,109.17
2019-01-24T06:39:21.268Z,121.77
2019-01-24T06:41:49.947Z,100.73
2019-01-24T06:44:18.723Z,103.80
2019-01-24T06:46:47.247Z,106.97
2019-01-24T06:49:15.748Z,116.87
2019-01-24T06:51:44.332Z,108.17
2019-01-24T06:54:15.729Z,102.77
2019-01-24T06:56:48.634Z,99.20
2019-01-24T06:59:17.050Z,103.40
2019-01-24T07:01:45.889Z,99.97
2019-01-24T07:04:14.442Z,99.67
2019-01-24T07:06:42.890Z,102.80
2019-01-24T07:09:11.321Z,122.77
2019-01-24T07:11:39.849Z,108.00
2019-01-24T07:14:08.243Z,96.90
2019-01-24T07:16:36.731Z,106.10
2019-01-24T07:19:05.237Z,105.27
2019-01-24T07:21:33.688Z,99.57
2019-01-24T07:24:02.145Z,94.33
2019-01-24T07:26:30.714Z,95.03
2019-01-24T07:28:59.203Z,100.17
2019-01-24T07:31:27.696Z,97.13
2019-01-24T07:33:56.176Z,101.63
2019-01-24T07:36:24.761Z,97.33
2019-01-24T07:38:53.259Z,98.23
2019-01-24T07:41:21.791Z,97.33
2019-01-24T07:43:50.336Z,97.90
2019-01-24T07:46:18.859Z,97.17
2019-01-24T07:48:47.417Z,96.70
2019-01-24T07:51:15.907Z,93.33
2019-01-24T07:53:45.835Z,97.50
2019-01-24T07:56:14.313Z,91.80
2019-01-24T07:58:42.800Z,98.33
2019-01-24T08:01:11.364Z,95.37
2019-01-24T08:03:39.856Z,110.00
2019-01-24T08:06:09.133Z,101.90
2019-01-24T08:08:38.215Z,91.20
2019-01-24T08:11:06.718Z,91.70
2019-01-24T08:13:35.189Z,99.97
2019-01-24T08:16:03.656Z,94.43
2019-01-24T08:18:32.167Z,104.30
2019-01-24T08:21:00.655Z,95.93
2019-01-24T08:23:29.140Z,95.37
2019-01-24T08:25:57.641Z,104.30
2019-01-24T08:28:26.199Z,101.23
2019-01-24T08:30:54.665Z,91.73
2019-01-24T08:33:23.351Z,102.60
2019-01-24T08:35:51.933Z,100.23
2019-01-24T08:38:20.390Z,100.10
2019-01-24T08:40:48.813Z,101.80
2019-01-24T08:43:17.577Z,100.27
2019-01-24T08:45:46.022Z,101.57
2019-01-24T08:48:14.570Z,94.47
2019-01-24T08:50:43.047Z,101.97
2019-01-24T08:53:11.503Z,97.60
2019-01-24T08:55:41.059Z,100.63
2019-01-24T08:58:09.915Z,97.53
2019-01-24T09:00:38.466Z,101.57
2019-01-24T09:03:07.308Z,95.20
2019-01-24T09:05:37.238Z,93.47
2019-01-24T09:08:05.990Z,94.03
2019-01-24T09:10:35.382Z,106.23
2019-01-24T09:13:05.356Z,100.97
2019-01-24T09:15:33.853Z,101.43
2019-01-24T09:18:02.371Z,98.13
2019-01-24T09:20:30.981Z,96.87
2019-01-24T09:23:02.599Z,102.33
2019-01-24T09:25:31.095Z,110.27
2019-01-24T09:27:59.786Z,98.90
2019-01-24T09:30:28.299Z,108.40
2019-01-24T09:32:56.823Z,112.47
2019-01-24T09:35:25.419Z,107.33
2019-01-24T09:37:55.973Z,104.77
2019-01-24T09:40:24.480Z,104.80
2019-01-24T09:42:52.967Z,108.87
2019-01-24T09:45:22.552Z,112.67
2019-01-24T09:47:51.475Z,100.23
2019-01-24T09:50:20.877Z,103.37
2019-01-24T09:52:49.327Z,97.10
2019-01-24T09:55:17.947Z,122.57
2019-01-24T09:57:46.558Z,107.47
2019-01-24T10:00:16.503Z,107.80
2019-01-24T10:02:45.054Z,110.73
2019-01-24T10:05:13.822Z,112.10
2019-01-24T10:07:44.323Z,110.80
2019-01-24T10:10:14.163Z,115.10
2019-01-24T10:12:42.707Z,119.13
2019-01-24T10:15:11.520Z,111.63
2019-01-24T10:17:39.994Z,106.53
2019-01-24T10:20:09.675Z,93.10
2019-01-24T10:22:38.173Z,94.47
2019-01-24T10:25:08.267Z,90.67
2019-01-24T10:27:36.642Z,96.30
2019-01-24T10:30:05.836Z,110.90
2019-01-24T10:32:34.351Z,101.30
2019-01-24T10:35:02.843Z,102.13
2019-01-24T10:37:32.753Z,101.70
2019-01-24T10:40:01.448Z,107.93
2019-01-24T10:42:29.912Z,100.13
2019-01-24T10:44:58.419Z,104.50
2019-01-24T10:47:26.972Z,96.03
2019-01-24T10:49:55.427Z,100.40
2019-01-24T10:52:23.891Z,101.33
2019-01-24T10:54:52.380Z,98.27
2019-01-24T10:57:20.765Z,111.33
2019-01-24T10:59:49.155Z,107.27
2019-01-24T11:02:17.757Z,94.33
2019-01-24T11:04:46.251Z,99.20
2019-01-24T11:07:14.840Z,103.37
2019-01-24T11:09:43.903Z,105.60
2019-01-24T11:12:12.440Z,108.13
2019-01-24T11:14:40.883Z,100.77
2019-01-24T11:17:09.319Z,106.03
2019-01-24T11:19:37.796Z,112.30
2019-01-24T11:22:06.272Z,110.47
2019-01-24T11:24:34.808Z,99.10
2019-01-24T11:27:03.277Z,100.93
2019-01-24T11:29:31.759Z,104.77
2019-01-24T11:32:00.256Z,108.67
2019-01-24T11:34:28.776Z,110.13
2019-01-24T11:36:57.432Z,103.37
2019-01-24T11:39:25.949Z,98.57
2019-01-24T11:41:54.491Z,104.00
2019-01-24T11:44:23.029Z,107.87
2019-01-24T11:46:51.427Z,102.37
2019-01-24T11:49:19.856Z,113.37
2019-01-24T11:51:48.216Z,122.07
2019-01-24T11:54:16.683Z,106.97
2019-01-24T11:56:45.164Z,119.87
2019-01-24T11:59:13.630Z,105.63
2019-01-24T12:01:42.089Z,117.53
2019-01-24T12:04:10.459Z,98.20
2019-01-24T12:06:38.824Z,107.23
2019-01-24T12:09:08.098Z,112.60
2019-01-24T12:11:36.616Z,111.43
2019-01-24T12:14:05.067Z,105.93
2019-01-24T12:16:33.544Z,109.43
2019-01-24T12:19:01.999Z,105.47
2019-01-24T12:21:30.455Z,109.50
2019-01-24T12:23:58.955Z,118.40
2019-01-24T12:26:27.451Z,113.73
2019-01-24T12:28:55.927Z,112.67
2019-01-24T12:31:24.386Z,116.47
2019-01-24T12:33:52.887Z,117.80
2019-01-24T12:36:21.311Z,115.57
2019-01-24T12:38:49.782Z,116.47
2019-01-24T12:41:18.340Z,120.20
2019-01-24T12:43:46.896Z,121.50
2019-01-24T12:46:15.274Z,114.93
2019-01-24T12:48:43.853Z,121.00
2019-01-24T12:51:12.311Z,109.33
2019-01-24T12:53:40.792Z,114.27
2019-01-24T12:56:09.306Z,114.13
2019-01-24T12:58:38.290Z,108.17
2019-01-24T13:01:06.761Z,104.37
2019-01-24T13:03:35.219Z,106.37
2019-01-24T13:06:03.697Z,113.70
2019-01-24T13:08:32.152Z,116.43
2019-01-24T13:11:00.818Z,109.83
2019-01-24T13:13:29.380Z,111.07
2019-01-24T13:15:57.843Z,107.83
2019-01-24T13:18:26.329Z,108.83
2019-01-24T13:20:54.799Z,107.77
2019-01-24T13:23:23.274Z,107.90
2019-01-24T13:25:51.723Z,107.17
2019-01-24T13:28:20.212Z,103.43
2019-01-24T13:30:48.607Z,104.57
2019-01-24T13:33:17.171Z,110.13
2019-01-24T13:35:45.698Z,110.50
2019-01-24T13:38:14.216Z,109.43
2019-01-24T13:40:42.721Z,106.00
2019-01-24T13:43:11.207Z,115.03
2019-01-24T13:45:39.884Z,110.90
2019-01-24T13:48:08.464Z,118.90
2019-01-24T13:50:36.972Z,106.73
2019-01-24T13:53:06.016Z,119.17
2019-01-24T13:55:34.465Z,104.23
2019-01-24T13:58:02.940Z,112.97
2019-01-24T14:00:32.303Z,116.50
2019-01-24T14:03:05.536Z,113.03
2019-01-24T14:05:33.922Z,117.83
2019-01-24T14:08:02.393Z,117.40
2019-01-24T14:10:30.966Z,113.57
2019-01-24T14:12:59.520Z,111.10
2019-01-24T14:15:27.965Z,109.10
2019-01-24T14:17:56.444Z,105.47
2019-01-24T14:20:24.907Z,103.40
2019-01-24T14:22:53.374Z,116.00
2019-01-24T14:25:21.943Z,104.07
2019-01-24T14:27:50.407Z,101.83
2019-01-24T14:30:19.953Z,113.57
2019-01-24T14:32:48.443Z,108.90
2019-01-24T14:35:17.072Z,108.97
2019-01-24T14:37:45.567Z,102.37
2019-01-24T14:40:14.043Z,114.10
2019-01-24T14:42:42.522Z,110.10
2019-01-24T14:45:12.547Z,107.43
2019-01-24T14:47:41.105Z,111.50
2019-01-24T14:50:11.544Z,108.20
2019-01-24T14:52:40.213Z,109.97
2019-01-24T14:55:09.338Z,106.70
2019-01-24T14:57:38.206Z,108.03
2019-01-24T15:00:09.884Z,111.20
2019-01-24T15:02:38.501Z,108.50
2019-01-24T15:05:08.225Z,95.13
2019-01-24T15:07:36.736Z,115.63
2019-01-24T15:10:05.764Z,106.97
2019-01-24T15:12:34.224Z,114.73
2019-01-24T15:15:02.724Z,114.20
2019-01-24T15:17:31.397Z,120.23
2019-01-24T15:19:59.873Z,114.40
2019-01-24T15:22:28.401Z,113.63
2019-01-24T15:24:56.943Z,107.93
2019-01-24T15:27:25.427Z,109.97
2019-01-24T15:29:54.011Z,109.70
2019-01-24T15:32:22.793Z,106.23
2019-01-24T15:34:51.328Z,117.40
2019-01-24T15:37:20.362Z,110.33
2019-01-24T15:39:48.926Z,120.93
2019-01-24T15:42:17.459Z,111.30
2019-01-24T15:44:45.977Z,116.07
2019-01-24T15:47:14.491Z,119.17
2019-01-24T15:49:43.282Z,122.80
2019-01-24T15:52:11.814Z,123.40
2019-01-24T15:54:40.196Z,116.03
2019-01-24T15:57:09.715Z,123.83
2019-01-24T15:59:38.441Z,132.00
2019-01-24T16:02:07.069Z,125.97
2019-01-24T16:04:35.678Z,124.70
2019-01-24T16:07:04.345Z,121.90
2019-01-24T16:09:34.901Z,121.80
2019-01-24T16:12:03.442Z,112.47
2019-01-24T16:14:31.932Z,112.93
2019-01-24T16:17:01.446Z,107.73
2019-01-24T16:19:30.589Z,108.20
2019-01-24T16:21:59.148Z,116.17
2019-01-24T16:24:28.133Z,104.47
2019-01-24T16:26:56.673Z,116.17
2019-01-24T16:29:25.259Z,114.27
2019-01-24T16:31:53.729Z,105.73
2019-01-24T16:34:22.438Z,109.87
2019-01-24T16:36:50.974Z,104.37
2019-01-24T16:39:19.613Z,113.80
2019-01-24T16:41:48.279Z,107.57
2019-01-24T16:44:16.847Z,114.73
2019-01-24T16:46:45.311Z,105.10
2019-01-24T16:49:13.932Z,108.53
2019-01-24T16:51:42.551Z,110.73
2019-01-24T16:54:11.012Z,113.30
2019-01-24T16:56:44.819Z,121.87
2019-01-24T16:59:13.243Z,115.00
2019-01-24T17:01:41.827Z,111.70
2019-01-24T17:04:10.411Z,113.20
2019-01-24T17:06:38.975Z,110.33
2019-01-24T17:09:09.065Z,112.93
2019-01-24T17:11:37.526Z,108.60
2019-01-24T17:14:06.562Z,110.23
2019-01-24T17:16:35.324Z,112.77
2019-01-24T17:19:04.515Z,106.63
2019-01-24T17:21:33.020Z,104.20
2019-01-24T17:24:01.483Z,97.37
2019-01-24T17:26:29.999Z,122.87
2019-01-24T17:28:58.584Z,102.80
2019-01-24T17:31:28.281Z,111.90
2019-01-24T17:34:19.382Z,114.33
2019-01-24T17:36:48.133Z,105.97
2019-01-24T17:39:16.587Z,107.13
2019-01-24T17:41:45.055Z,107.03
2019-01-24T17:44:13.635Z,110.57
2019-01-24T17:46:42.383Z,108.20
2019-01-24T17:49:11.196Z,116.27
2019-01-24T17:51:44.811Z,110.97
2019-01-24T17:54:14.304Z,108.53
2019-01-24T17:56:42.765Z,110.33
2019-01-24T17:59:11.434Z,104.43
2019-01-24T18:01:39.988Z,116.17
2019-01-24T18:04:08.548Z,109.10
2019-01-24T18:06:36.997Z,110.10
2019-01-24T18:09:06.842Z,110.57
2019-01-24T18:11:36.338Z,110.37
2019-01-24T18:14:05.848Z,110.73
2019-01-24T18:16:34.300Z,112.53
2019-01-24T18:19:02.736Z,115.00
2019-01-24T18:21:31.370Z,113.90
2019-01-24T18:23:59.833Z,118.90
2019-01-24T18:26:28.488Z,106.40
2019-01-24T18:28:56.991Z,109.40
2019-01-24T18:31:25.451Z,108.90
2019-01-24T18:33:54.284Z,114.77
2019-01-24T18:36:23.071Z,111.17
2019-01-24T18:38:52.148Z,111.00
2019-01-24T18:41:23.806Z,106.17
2019-01-24T18:46:07.022Z,110.93
2019-01-24T18:46:57.795Z,108.93
2019-01-24T18:49:26.511Z,108.13
2019-01-24T18:51:54.983Z,117.83
2019-01-24T18:54:26.142Z,107.40
2019-01-24T18:57:23.165Z,107.23
2019-01-24T18:59:51.870Z,108.97
2019-01-24T19:02:20.628Z,105.33
2019-01-24T19:05:03.592Z,114.50
2019-01-24T19:07:46.871Z,111.10
2019-01-24T19:10:36.165Z,107.97
2019-01-24T19:13:26.048Z,108.80
2019-01-24T19:15:57.729Z,112.70
2019-01-24T19:18:28.848Z,109.07
2019-01-24T19:20:57.364Z,108.83
2019-01-24T19:23:28.074Z,107.87
2019-01-24T19:25:56.899Z,126.47
2019-01-24T19:28:25.654Z,115.10
2019-01-24T19:30:54.338Z,118.17
2019-01-24T19:33:43.465Z,111.63
2019-01-24T19:39:54.007Z,102.20
2019-01-24T19:42:18.544Z,108.83
2019-01-24T19:44:47.200Z,108.50
2019-01-24T19:47:50.267Z,99.20
2019-01-24T19:51:08.339Z,96.53
2019-01-24T19:53:40.045Z,111.07
2019-01-24T19:56:12.077Z,106.77
2019-01-24T19:58:40.731Z,100.97
2019-01-24T20:01:09.409Z,108.20
2019-01-24T20:03:50.877Z,103.50
2019-01-24T20:06:33.923Z,110.47
2019-01-24T20:09:11.699Z,98.07
2019-01-24T20:11:59.899Z,108.07
2019-01-24T20:14:39.340Z,114.13
2019-01-24T20:17:19.985Z,111.00
2019-01-24T20:19:54.583Z,107.23
2019-01-24T20:22:31.119Z,108.30
2019-01-24T20:24:59.851Z,108.97
2019-01-24T20:27:29.944Z,110.33
2019-01-24T20:30:16.141Z,107.73
2019-01-24T20:32:46.755Z,106.40
2019-01-24T20:35:20.650Z,101.93
2019-01-24T20:37:50.293Z,105.30
2019-01-24T20:40:20.522Z,107.20
2019-01-24T20:42:49.563Z,108.30
2019-01-24T20:45:19.183Z,99.50
2019-01-24T20:47:50.419Z,110.53
2019-01-24T20:50:45.685Z,114.07
2019-01-24T20:53:38.380Z,110.33
2019-01-24T20:56:07.157Z,111.03
2019-01-24T20:58:37.517Z,112.80
2019-01-24T21:01:13.653Z,108.37
2019-01-24T21:03:55.117Z,101.73
2019-01-24T21:06:27.920Z,102.50
2019-01-24T21:08:59.944Z,109.60
2019-01-24T21:12:01.425Z,109.23
2019-01-24T21:14:47.135Z,101.70
2019-01-24T21:17:20.523Z,110.10
2019-01-24T21:20:02.163Z,105.40
2019-01-24T21:22:40.181Z,105.30
2019-01-24T21:25:00.264Z,105.30
2019-01-24T21:27:29.629Z,102.87
2019-01-24T21:30:11.465Z,106.37
2019-01-24T21:33:03.377Z,109.73
2019-01-24T21:35:55.063Z,104.97
2019-01-24T21:38:20.296Z,111.53
2019-01-24T21:41:01.426Z,101.57
2019-01-24T21:43:57.239Z,103.43
2019-01-24T21:47:49.639Z,101.67
2019-01-24T21:53:26.234Z,111.77
2019-01-24T21:56:04.286Z,107.07
2019-01-24T21:59:08.397Z,103.80
2019-01-24T22:01:56.570Z,101.20
2019-01-24T22:11:18.584Z,108.43
2019-01-24T22:14:39.598Z,112.53
2019-01-24T22:19:26.926Z,110.97
2019-01-24T22:20:57.325Z,104.10
2019-01-24T22:27:13.990Z,106.87
2019-01-24T22:33:47.170Z,101.73
2019-01-24T22:36:43.374Z,105.37
2019-01-24T22:43:06.975Z,107.10
2019-01-24T22:46:00.275Z,101.90
2019-01-24T22:49:24.894Z,100.93
2019-01-24T22:52:09.908Z,97.47
2019-01-24T22:55:33.682Z,107.00
2019-01-24T23:04:55.791Z,101.67
2019-01-24T23:08:06.827Z,99.07
2019-01-24T23:11:09.425Z,100.03
2019-01-24T23:15:19.854Z,106.97
2019-01-24T23:18:41.950Z,102.23
2019-01-24T23:20:37.276Z,99.67
2019-01-24T23:34:12.597Z,105.50
2019-01-24T23:37:07.891Z,102.40
2019-01-24T23:40:28.991Z,97.37
2019-01-24T23:50:16.847Z,110.83
2019-01-24T23:54:58.903Z,96.40
2019-01-24T23:56:19.121Z,107.13
